sensor_id;sensor_type;location;lat;lon;timestamp;pressure;altitude;pressure_sealevel;temperature;humidity
77799;BME280;66989;50.426;15.352;2023-04-24T00:00:34;97172.06;;;9.96;93.43
77799;BME280;66989;50.426;15.352;2023-04-24T00:03:01;97169.72;;;9.93;93.87
77799;BME280;66989;50.426;15.352;2023-04-24T00:05:28;97172.50;;;9.91;94.40
77799;BME280;66989;50.426;15.352;2023-04-24T00:07:53;97164.59;;;9.91;94.25
77799;BME280;66989;50.426;15.352;2023-04-24T00:10:19;97173.75;;;9.87;93.98
77799;BME280;66989;50.426;15.352;2023-04-24T00:12:45;97156.81;;;9.80;93.81
77799;BME280;66989;50.426;15.352;2023-04-24T00:15:10;97155.72;;;9.73;93.35
77799;BME280;66989;50.426;15.352;2023-04-24T00:17:36;97161.25;;;9.70;93.91
77799;BME280;66989;50.426;15.352;2023-04-24T00:20:01;97156.00;;;9.70;94.69
77799;BME280;66989;50.426;15.352;2023-04-24T00:22:30;97154.34;;;9.69;94.95
77799;BME280;66989;50.426;15.352;2023-04-24T00:24:56;97149.78;;;9.71;95.50
77799;BME280;66989;50.426;15.352;2023-04-24T00:27:22;97152.41;;;9.71;95.69
77799;BME280;66989;50.426;15.352;2023-04-24T00:29:47;97147.97;;;9.71;96.10
77799;BME280;66989;50.426;15.352;2023-04-24T00:32:13;97147.69;;;9.74;96.24
77799;BME280;66989;50.426;15.352;2023-04-24T00:34:39;97141.31;;;9.77;96.36
77799;BME280;66989;50.426;15.352;2023-04-24T00:37:04;97141.31;;;9.77;96.33
77799;BME280;66989;50.426;15.352;2023-04-24T00:39:30;97141.03;;;9.80;96.42
77799;BME280;66989;50.426;15.352;2023-04-24T00:41:56;97147.69;;;9.84;96.67
77799;BME280;66989;50.426;15.352;2023-04-24T00:44:22;97157.25;;;9.85;96.51
77799;BME280;66989;50.426;15.352;2023-04-24T00:46:48;97151.56;;;9.90;96.51
77799;BME280;66989;50.426;15.352;2023-04-24T00:49:18;97161.81;;;9.93;96.07
77799;BME280;66989;50.426;15.352;2023-04-24T00:51:44;97173.34;;;9.92;95.73
77799;BME280;66989;50.426;15.352;2023-04-24T00:54:11;97170.13;;;9.88;95.01
77799;BME280;66989;50.426;15.352;2023-04-24T00:56:36;97166.69;;;9.88;94.98
77799;BME280;66989;50.426;15.352;2023-04-24T00:59:02;97143.97;;;9.87;95.25
77799;BME280;66989;50.426;15.352;2023-04-24T01:01:27;97166.53;;;9.89;95.23
77799;BME280;66989;50.426;15.352;2023-04-24T01:03:53;97176.50;;;9.95;95.65
77799;BME280;66989;50.426;15.352;2023-04-24T01:06:19;97185.38;;;10.04;95.39
77799;BME280;66989;50.426;15.352;2023-04-24T01:08:45;97173.59;;;10.08;94.70
77799;BME280;66989;50.426;15.352;2023-04-24T01:11:11;97177.63;;;10.12;94.49
77799;BME280;66989;50.426;15.352;2023-04-24T01:13:37;97174.84;;;10.14;93.80
77799;BME280;66989;50.426;15.352;2023-04-24T01:16:02;97158.88;;;10.15;93.73
77799;BME280;66989;50.426;15.352;2023-04-24T01:18:28;97169.31;;;10.17;93.73
77799;BME280;66989;50.426;15.352;2023-04-24T01:20:59;97157.50;;;10.21;93.61
77799;BME280;66989;50.426;15.352;2023-04-24T01:23:27;97153.63;;;10.25;93.52
77799;BME280;66989;50.426;15.352;2023-04-24T01:25:53;97156.94;;;10.27;93.11
77799;BME280;66989;50.426;15.352;2023-04-24T01:28:18;97157.63;;;10.29;93.07
77799;BME280;66989;50.426;15.352;2023-04-24T01:30:44;97159.28;;;10.30;92.88
77799;BME280;66989;50.426;15.352;2023-04-24T01:33:09;97157.47;;;10.30;92.65
77799;BME280;66989;50.426;15.352;2023-04-24T01:35:35;97154.69;;;10.32;92.95
77799;BME280;66989;50.426;15.352;2023-04-24T01:38:02;97153.75;;;10.33;92.99
77799;BME280;66989;50.426;15.352;2023-04-24T01:40:28;97144.88;;;10.34;93.03
77799;BME280;66989;50.426;15.352;2023-04-24T01:42:53;97139.44;;;10.35;92.89
77799;BME280;66989;50.426;15.352;2023-04-24T01:45:19;97134.75;;;10.39;93.58
77799;BME280;66989;50.426;15.352;2023-04-24T01:47:45;97142.38;;;10.42;93.71
77799;BME280;66989;50.426;15.352;2023-04-24T01:50:10;97136.81;;;10.45;93.31
77799;BME280;66989;50.426;15.352;2023-04-24T01:52:36;97141.81;;;10.48;93.06
77799;BME280;66989;50.426;15.352;2023-04-24T01:55:05;97140.69;;;10.51;93.42
77799;BME280;66989;50.426;15.352;2023-04-24T01:57:31;97144.16;;;10.51;92.67
77799;BME280;66989;50.426;15.352;2023-04-24T01:59:57;97138.06;;;10.51;92.33
77799;BME280;66989;50.426;15.352;2023-04-24T02:02:22;97136.56;;;10.48;92.31
77799;BME280;66989;50.426;15.352;2023-04-24T02:04:49;97129.91;;;10.44;92.31
77799;BME280;66989;50.426;15.352;2023-04-24T02:07:15;97124.91;;;10.41;91.91
77799;BME280;66989;50.426;15.352;2023-04-24T02:09:40;97125.31;;;10.37;91.88
77799;BME280;66989;50.426;15.352;2023-04-24T02:12:06;97119.63;;;10.31;91.60
77799;BME280;66989;50.426;15.352;2023-04-24T02:14:31;97126.03;;;10.29;91.58
77799;BME280;66989;50.426;15.352;2023-04-24T02:16:57;97122.00;;;10.25;91.95
77799;BME280;66989;50.426;15.352;2023-04-24T02:19:22;97110.91;;;10.21;91.95
77799;BME280;66989;50.426;15.352;2023-04-24T02:21:48;97108.41;;;10.20;92.04
77799;BME280;66989;50.426;15.352;2023-04-24T02:24:13;97100.13;;;10.15;92.56
77799;BME280;66989;50.426;15.352;2023-04-24T02:26:38;97104.97;;;10.09;92.59
77799;BME280;66989;50.426;15.352;2023-04-24T02:29:04;97096.66;;;10.04;92.79
77799;BME280;66989;50.426;15.352;2023-04-24T02:31:29;97099.03;;;9.98;92.60
77799;BME280;66989;50.426;15.352;2023-04-24T02:33:54;97098.78;;;9.91;92.83
77799;BME280;66989;50.426;15.352;2023-04-24T02:36:20;97104.31;;;9.88;93.18
77799;BME280;66989;50.426;15.352;2023-04-24T02:38:46;97097.66;;;9.84;93.24
77799;BME280;66989;50.426;15.352;2023-04-24T02:41:11;97100.84;;;9.78;93.52
77799;BME280;66989;50.426;15.352;2023-04-24T02:43:36;97107.25;;;9.75;93.93
77799;BME280;66989;50.426;15.352;2023-04-24T02:46:02;97103.91;;;9.73;93.74
77799;BME280;66989;50.426;15.352;2023-04-24T02:48:27;97110.16;;;9.72;94.51
77799;BME280;66989;50.426;15.352;2023-04-24T02:50:53;97106.38;;;9.75;94.56
77799;BME280;66989;50.426;15.352;2023-04-24T02:53:18;97109.03;;;9.75;94.39
77799;BME280;66989;50.426;15.352;2023-04-24T02:55:43;97104.47;;;9.77;94.68
77799;BME280;66989;50.426;15.352;2023-04-24T02:58:10;97109.44;;;9.80;94.80
77799;BME280;66989;50.426;15.352;2023-04-24T03:00:38;97109.16;;;9.83;94.88
77799;BME280;66989;50.426;15.352;2023-04-24T03:03:03;97110.81;;;9.84;94.44
77799;BME280;66989;50.426;15.352;2023-04-24T03:05:28;97115.13;;;9.85;94.52
77799;BME280;66989;50.426;15.352;2023-04-24T03:07:56;97113.03;;;9.89;94.74
77799;BME280;66989;50.426;15.352;2023-04-24T03:10:21;97103.91;;;9.93;94.52
77799;BME280;66989;50.426;15.352;2023-04-24T03:12:50;97108.88;;;9.96;94.41
77799;BME280;66989;50.426;15.352;2023-04-24T03:15:15;97106.94;;;9.98;94.74
77799;BME280;66989;50.426;15.352;2023-04-24T03:17:40;97112.78;;;10.01;94.71
77799;BME280;66989;50.426;15.352;2023-04-24T03:20:07;97119.69;;;10.02;94.41
77799;BME280;66989;50.426;15.352;2023-04-24T03:22:34;97125.50;;;10.06;94.72
77799;BME280;66989;50.426;15.352;2023-04-24T03:25:00;97123.56;;;10.08;94.54
77799;BME280;66989;50.426;15.352;2023-04-24T03:27:26;97122.59;;;10.09;95.11
77799;BME280;66989;50.426;15.352;2023-04-24T03:29:51;97122.31;;;10.12;95.10
77799;BME280;66989;50.426;15.352;2023-04-24T03:32:21;97126.88;;;10.10;94.70
77799;BME280;66989;50.426;15.352;2023-04-24T03:34:47;97121.59;;;10.10;95.02
77799;BME280;66989;50.426;15.352;2023-04-24T03:37:13;97125.78;;;10.13;95.23
77799;BME280;66989;50.426;15.352;2023-04-24T03:39:38;97125.47;;;10.16;95.10
77799;BME280;66989;50.426;15.352;2023-04-24T03:42:03;97121.75;;;10.18;95.81
77799;BME280;66989;50.426;15.352;2023-04-24T03:44:29;97126.72;;;10.21;95.25
77799;BME280;66989;50.426;15.352;2023-04-24T03:46:54;97122.97;;;10.24;95.08
77799;BME280;66989;50.426;15.352;2023-04-24T03:49:20;97121.03;;;10.26;95.10
77799;BME280;66989;50.426;15.352;2023-04-24T03:51:45;97119.09;;;10.28;94.61
77799;BME280;66989;50.426;15.352;2023-04-24T03:54:11;97126.84;;;10.29;94.58
77799;BME280;66989;50.426;15.352;2023-04-24T03:56:36;97122.41;;;10.30;94.31
77799;BME280;66989;50.426;15.352;2023-04-24T03:59:02;97122.13;;;10.33;94.55
77799;BME280;66989;50.426;15.352;2023-04-24T04:01:27;97116.88;;;10.33;94.24
77799;BME280;66989;50.426;15.352;2023-04-24T04:03:53;97117.69;;;10.33;94.07
77799;BME280;66989;50.426;15.352;2023-04-24T04:06:18;97127.97;;;10.37;93.87
77799;BME280;66989;50.426;15.352;2023-04-24T04:08:44;97130.03;;;10.33;93.16
77799;BME280;66989;50.426;15.352;2023-04-24T04:11:10;97127.13;;;10.26;92.75
77799;BME280;66989;50.426;15.352;2023-04-24T04:13:35;97126.88;;;10.20;93.36
77799;BME280;66989;50.426;15.352;2023-04-24T04:16:01;97131.03;;;10.13;93.68
77799;BME280;66989;50.426;15.352;2023-04-24T04:18:26;97132.03;;;10.12;93.85
77799;BME280;66989;50.426;15.352;2023-04-24T04:20:51;97125.91;;;10.11;94.13
77799;BME280;66989;50.426;15.352;2023-04-24T04:23:17;97130.06;;;10.14;93.81
77799;BME280;66989;50.426;15.352;2023-04-24T04:25:42;97132.69;;;10.14;93.85
77799;BME280;66989;50.426;15.352;2023-04-24T04:28:08;97132.13;;;10.10;94.13
77799;BME280;66989;50.426;15.352;2023-04-24T04:30:33;97134.66;;;10.12;94.24
77799;BME280;66989;50.426;15.352;2023-04-24T04:32:59;97143.25;;;10.14;94.10
77799;BME280;66989;50.426;15.352;2023-04-24T04:35:24;97146.53;;;10.16;94.14
77799;BME280;66989;50.426;15.352;2023-04-24T04:37:53;97135.75;;;10.19;93.95
77799;BME280;66989;50.426;15.352;2023-04-24T04:40:18;97135.75;;;10.19;94.28
77799;BME280;66989;50.426;15.352;2023-04-24T04:42:43;97132.13;;;10.20;94.26
77799;BME280;66989;50.426;15.352;2023-04-24T04:45:11;97139.06;;;10.21;94.56
77799;BME280;66989;50.426;15.352;2023-04-24T04:47:37;97129.50;;;10.20;94.62
77799;BME280;66989;50.426;15.352;2023-04-24T04:50:03;97136.41;;;10.21;94.66
77799;BME280;66989;50.426;15.352;2023-04-24T04:52:29;97134.75;;;10.20;94.67
77799;BME280;66989;50.426;15.352;2023-04-24T04:54:55;97130.72;;;10.25;94.93
77799;BME280;66989;50.426;15.352;2023-04-24T04:57:20;97134.19;;;10.26;94.92
77799;BME280;66989;50.426;15.352;2023-04-24T04:59:46;97141.81;;;10.29;94.96
77799;BME280;66989;50.426;15.352;2023-04-24T05:02:12;97139.59;;;10.34;95.15
77799;BME280;66989;50.426;15.352;2023-04-24T05:04:37;97144.31;;;10.40;94.91
77799;BME280;66989;50.426;15.352;2023-04-24T05:07:02;97151.53;;;10.48;94.70
77799;BME280;66989;50.426;15.352;2023-04-24T05:09:29;97144.84;;;10.53;94.63
77799;BME280;66989;50.426;15.352;2023-04-24T05:11:55;97144.94;;;10.61;94.39
77799;BME280;66989;50.426;15.352;2023-04-24T05:14:21;97147.84;;;10.68;93.73
77799;BME280;66989;50.426;15.352;2023-04-24T05:16:47;97160.16;;;10.77;94.30
77799;BME280;66989;50.426;15.352;2023-04-24T05:19:13;97154.56;;;10.90;93.95
77799;BME280;66989;50.426;15.352;2023-04-24T05:21:39;97147.16;;;11.03;93.69
77799;BME280;66989;50.426;15.352;2023-04-24T05:24:05;97148.47;;;11.17;93.42
77799;BME280;66989;50.426;15.352;2023-04-24T05:26:31;97143.00;;;11.28;92.95
77799;BME280;66989;50.426;15.352;2023-04-24T05:28:56;97145.56;;;11.38;92.31
77799;BME280;66989;50.426;15.352;2023-04-24T05:31:22;97145.69;;;11.46;91.47
77799;BME280;66989;50.426;15.352;2023-04-24T05:33:47;97136.53;;;11.58;91.36
77799;BME280;66989;50.426;15.352;2023-04-24T05:36:12;97142.13;;;11.73;91.52
77799;BME280;66989;50.426;15.352;2023-04-24T05:38:38;97138.50;;;11.92;91.18
77799;BME280;66989;50.426;15.352;2023-04-24T05:41:03;97139.53;;;12.17;91.46
77799;BME280;66989;50.426;15.352;2023-04-24T05:43:29;97146.22;;;12.47;91.24
77799;BME280;66989;50.426;15.352;2023-04-24T05:45:54;97154.31;;;12.72;90.79
77799;BME280;66989;50.426;15.352;2023-04-24T05:48:20;97154.59;;;12.94;89.11
77799;BME280;66989;50.426;15.352;2023-04-24T05:50:47;97159.59;;;12.98;86.33
77799;BME280;66989;50.426;15.352;2023-04-24T05:53:13;97159.25;;;13.01;85.63
77799;BME280;66989;50.426;15.352;2023-04-24T05:55:38;97160.47;;;13.06;85.62
77799;BME280;66989;50.426;15.352;2023-04-24T05:58:04;97165.13;;;13.12;85.43
77799;BME280;66989;50.426;15.352;2023-04-24T06:00:29;97155.00;;;13.16;84.33
77799;BME280;66989;50.426;15.352;2023-04-24T06:02:55;97157.81;;;13.14;84.16
77799;BME280;66989;50.426;15.352;2023-04-24T06:05:20;97158.28;;;13.02;84.44
77799;BME280;66989;50.426;15.352;2023-04-24T06:07:46;97161.59;;;13.04;84.52
77799;BME280;66989;50.426;15.352;2023-04-24T06:10:11;97166.53;;;12.99;84.53
77799;BME280;66989;50.426;15.352;2023-04-24T06:12:36;97160.69;;;12.87;84.42
77799;BME280;66989;50.426;15.352;2023-04-24T06:15:03;97164.56;;;12.75;85.10
77799;BME280;66989;50.426;15.352;2023-04-24T06:17:29;97162.88;;;12.65;85.37
77799;BME280;66989;50.426;15.352;2023-04-24T06:19:54;97161.81;;;12.58;85.42
77799;BME280;66989;50.426;15.352;2023-04-24T06:22:19;97161.47;;;12.53;85.99
77799;BME280;66989;50.426;15.352;2023-04-24T06:24:45;97160.19;;;12.57;86.18
77799;BME280;66989;50.426;15.352;2023-04-24T06:27:10;97158.31;;;12.50;86.61
77799;BME280;66989;50.426;15.352;2023-04-24T06:29:36;97165.66;;;12.38;86.52
77799;BME280;66989;50.426;15.352;2023-04-24T06:32:02;97168.25;;;12.30;87.21
77799;BME280;66989;50.426;15.352;2023-04-24T06:34:27;97165.06;;;12.26;87.87
77799;BME280;66989;50.426;15.352;2023-04-24T06:36:53;97167.44;;;12.29;87.96
77799;BME280;66989;50.426;15.352;2023-04-24T06:39:20;97163.34;;;12.35;87.03
77799;BME280;66989;50.426;15.352;2023-04-24T06:41:45;97159.06;;;12.42;86.84
77799;BME280;66989;50.426;15.352;2023-04-24T06:44:10;97161.09;;;12.48;86.28
77799;BME280;66989;50.426;15.352;2023-04-24T06:46:36;97154.88;;;12.57;85.93
77799;BME280;66989;50.426;15.352;2023-04-24T06:49:01;97154.25;;;12.63;85.78
77799;BME280;66989;50.426;15.352;2023-04-24T06:51:26;97164.72;;;12.73;85.57
77799;BME280;66989;50.426;15.352;2023-04-24T06:53:55;97161.50;;;12.87;85.31
77799;BME280;66989;50.426;15.352;2023-04-24T06:56:23;97165.88;;;12.97;84.23
77799;BME280;66989;50.426;15.352;2023-04-24T06:58:50;97166.41;;;13.08;84.26
77799;BME280;66989;50.426;15.352;2023-04-24T07:01:16;97168.22;;;13.08;83.07
77799;BME280;66989;50.426;15.352;2023-04-24T07:03:41;97167.72;;;13.04;83.81
77799;BME280;66989;50.426;15.352;2023-04-24T07:06:07;97166.56;;;13.07;83.77
77799;BME280;66989;50.426;15.352;2023-04-24T07:08:33;97171.34;;;13.03;83.09
77799;BME280;66989;50.426;15.352;2023-04-24T07:10:59;97170.53;;;13.03;83.08
77799;BME280;66989;50.426;15.352;2023-04-24T07:13:24;97174.75;;;12.95;83.31
77799;BME280;66989;50.426;15.352;2023-04-24T07:15:50;97172.44;;;12.92;83.19
77799;BME280;66989;50.426;15.352;2023-04-24T07:18:17;97166.81;;;12.95;82.17
77799;BME280;66989;50.426;15.352;2023-04-24T07:20:43;97171.94;;;12.89;82.57
77799;BME280;66989;50.426;15.352;2023-04-24T07:23:09;97182.84;;;12.86;82.67
77799;BME280;66989;50.426;15.352;2023-04-24T07:25:34;97177.50;;;12.78;82.67
77799;BME280;66989;50.426;15.352;2023-04-24T07:28:00;97182.41;;;12.73;82.54
77799;BME280;66989;50.426;15.352;2023-04-24T07:30:25;97180.81;;;12.80;83.45
77799;BME280;66989;50.426;15.352;2023-04-24T07:32:52;97181.66;;;12.80;82.00
77799;BME280;66989;50.426;15.352;2023-04-24T07:35:18;97174.03;;;12.77;82.47
77799;BME280;66989;50.426;15.352;2023-04-24T07:37:43;97175.00;;;12.76;82.68
77799;BME280;66989;50.426;15.352;2023-04-24T07:40:12;97177.78;;;12.75;83.20
77799;BME280;66989;50.426;15.352;2023-04-24T07:42:38;97176.84;;;12.76;83.12
77799;BME280;66989;50.426;15.352;2023-04-24T07:45:03;97180.44;;;12.75;82.39
77799;BME280;66989;50.426;15.352;2023-04-24T07:47:29;97185.22;;;12.71;82.85
77799;BME280;66989;50.426;15.352;2023-04-24T07:49:55;97192.84;;;12.74;82.97
77799;BME280;66989;50.426;15.352;2023-04-24T07:52:21;97189.34;;;12.65;83.49
77799;BME280;66989;50.426;15.352;2023-04-24T07:54:46;97199.09;;;12.65;83.85
77799;BME280;66989;50.426;15.352;2023-04-24T07:57:11;97189.78;;;12.61;83.61
77799;BME280;66989;50.426;15.352;2023-04-24T07:59:37;97189.09;;;12.59;84.52
77799;BME280;66989;50.426;15.352;2023-04-24T08:02:02;97190.91;;;12.58;84.73
77799;BME280;66989;50.426;15.352;2023-04-24T08:04:28;97187.97;;;12.61;84.37
77799;BME280;66989;50.426;15.352;2023-04-24T08:06:53;97183.22;;;12.65;84.45
77799;BME280;66989;50.426;15.352;2023-04-24T08:09:19;97179.88;;;12.63;84.19
77799;BME280;66989;50.426;15.352;2023-04-24T08:11:44;97182.69;;;12.61;84.12
77799;BME280;66989;50.426;15.352;2023-04-24T08:14:10;97182.69;;;12.61;84.45
77799;BME280;66989;50.426;15.352;2023-04-24T08:16:38;97191.28;;;12.63;84.64
77799;BME280;66989;50.426;15.352;2023-04-24T08:19:03;97189.00;;;12.68;84.80
77799;BME280;66989;50.426;15.352;2023-04-24T08:21:28;97185.06;;;12.73;84.64
77799;BME280;66989;50.426;15.352;2023-04-24T08:23:54;97193.06;;;12.81;84.46
77799;BME280;66989;50.426;15.352;2023-04-24T08:26:19;97188.97;;;12.86;84.55
77799;BME280;66989;50.426;15.352;2023-04-24T08:28:45;97188.31;;;12.92;84.29
77799;BME280;66989;50.426;15.352;2023-04-24T08:31:11;97192.22;;;13.06;83.85
77799;BME280;66989;50.426;15.352;2023-04-24T08:33:36;97191.25;;;13.15;83.52
77799;BME280;66989;50.426;15.352;2023-04-24T08:36:03;97194.25;;;13.20;82.87
77799;BME280;66989;50.426;15.352;2023-04-24T08:38:28;97184.69;;;13.28;82.54
77799;BME280;66989;50.426;15.352;2023-04-24T08:40:54;97188.00;;;13.30;82.96
77799;BME280;66989;50.426;15.352;2023-04-24T08:43:21;97188.84;;;13.30;83.12
77799;BME280;66989;50.426;15.352;2023-04-24T08:45:47;97188.19;;;13.36;82.86
77799;BME280;66989;50.426;15.352;2023-04-24T08:48:13;97193.34;;;13.46;83.23
77799;BME280;66989;50.426;15.352;2023-04-24T08:50:40;97188.75;;;13.56;83.30
77799;BME280;66989;50.426;15.352;2023-04-24T08:53:08;97184.50;;;13.63;82.55
77799;BME280;66989;50.426;15.352;2023-04-24T08:55:35;97190.47;;;13.73;82.30
77799;BME280;66989;50.426;15.352;2023-04-24T08:58:02;97191.63;;;13.71;81.87
77799;BME280;66989;50.426;15.352;2023-04-24T09:00:28;97191.47;;;13.81;81.86
77799;BME280;66989;50.426;15.352;2023-04-24T09:02:54;97191.19;;;13.84;81.70
77799;BME280;66989;50.426;15.352;2023-04-24T09:05:21;97188.38;;;13.85;81.11
77799;BME280;66989;50.426;15.352;2023-04-24T09:07:54;97190.53;;;13.90;81.50
77799;BME280;66989;50.426;15.352;2023-04-24T09:10:22;97180.41;;;13.93;80.83
77799;BME280;66989;50.426;15.352;2023-04-24T09:12:47;97180.94;;;13.89;80.60
77799;BME280;66989;50.426;15.352;2023-04-24T09:15:13;97182.25;;;13.85;80.41
77799;BME280;66989;50.426;15.352;2023-04-24T09:17:38;97185.91;;;13.84;81.30
77799;BME280;66989;50.426;15.352;2023-04-24T09:20:04;97189.84;;;13.88;81.15
77799;BME280;66989;50.426;15.352;2023-04-24T09:22:30;97191.72;;;13.95;81.09
77799;BME280;66989;50.426;15.352;2023-04-24T09:25:03;97187.22;;;13.96;81.12
77799;BME280;66989;50.426;15.352;2023-04-24T09:27:31;97193.53;;;13.95;80.59
77799;BME280;66989;50.426;15.352;2023-04-24T09:29:56;97186.72;;;13.92;80.42
77799;BME280;66989;50.426;15.352;2023-04-24T09:32:23;97180.09;;;13.96;80.25
77799;BME280;66989;50.426;15.352;2023-04-24T09:35:05;97187.22;;;13.96;80.12
77799;BME280;66989;50.426;15.352;2023-04-24T09:37:35;97184.56;;;13.96;79.23
77799;BME280;66989;50.426;15.352;2023-04-24T09:40:19;97187.22;;;13.96;78.97
77799;BME280;66989;50.426;15.352;2023-04-24T09:42:56;97181.09;;;14.04;78.96
77799;BME280;66989;50.426;15.352;2023-04-24T09:45:26;97186.75;;;14.17;78.81
77799;BME280;66989;50.426;15.352;2023-04-24T09:47:52;97184.41;;;14.14;79.26
77799;BME280;66989;50.426;15.352;2023-04-24T09:50:21;97181.59;;;14.23;79.01
77799;BME280;66989;50.426;15.352;2023-04-24T09:53:06;97181.59;;;14.23;78.57
77799;BME280;66989;50.426;15.352;2023-04-24T09:55:39;97174.50;;;14.32;77.69
77799;BME280;66989;50.426;15.352;2023-04-24T09:58:07;97183.44;;;14.39;77.09
77799;BME280;66989;50.426;15.352;2023-04-24T10:00:33;97185.91;;;14.49;76.25
77799;BME280;66989;50.426;15.352;2023-04-24T10:03:01;97189.03;;;14.61;76.22
77799;BME280;66989;50.426;15.352;2023-04-24T10:05:29;97178.75;;;14.66;76.09
77799;BME280;66989;50.426;15.352;2023-04-24T10:08:06;97184.38;;;14.71;73.11
77799;BME280;66989;50.426;15.352;2023-04-24T10:10:39;97187.03;;;14.79;73.68
77799;BME280;66989;50.426;15.352;2023-04-24T10:13:05;97189.19;;;14.84;73.31
77799;BME280;66989;50.426;15.352;2023-04-24T10:15:32;97184.06;;;14.74;75.17
77799;BME280;66989;50.426;15.352;2023-04-24T10:17:59;97186.41;;;14.77;76.22
77799;BME280;66989;50.426;15.352;2023-04-24T10:20:27;97185.41;;;14.78;75.32
77799;BME280;66989;50.426;15.352;2023-04-24T10:22:54;97196.84;;;14.70;75.25
77799;BME280;66989;50.426;15.352;2023-04-24T10:25:20;97193.88;;;14.57;75.43
77799;BME280;66989;50.426;15.352;2023-04-24T10:27:47;97192.06;;;14.58;74.67
77799;BME280;66989;50.426;15.352;2023-04-24T10:30:13;97192.03;;;14.49;73.31
77799;BME280;66989;50.426;15.352;2023-04-24T10:32:39;97195.88;;;14.47;74.71
77799;BME280;66989;50.426;15.352;2023-04-24T10:35:06;97188.59;;;14.41;75.26
77799;BME280;66989;50.426;15.352;2023-04-24T10:37:42;97195.22;;;14.37;75.74
77799;BME280;66989;50.426;15.352;2023-04-24T10:40:11;97191.22;;;14.33;76.89
77799;BME280;66989;50.426;15.352;2023-04-24T10:42:40;97187.94;;;14.31;76.44
77799;BME280;66989;50.426;15.352;2023-04-24T10:45:16;97194.06;;;14.31;76.35
77799;BME280;66989;50.426;15.352;2023-04-24T10:47:42;97204.81;;;14.38;76.21
77799;BME280;66989;50.426;15.352;2023-04-24T10:50:12;97198.03;;;14.43;75.18
77799;BME280;66989;50.426;15.352;2023-04-24T10:52:47;97203.47;;;14.50;75.20
77799;BME280;66989;50.426;15.352;2023-04-24T10:55:14;97201.97;;;14.56;75.48
77799;BME280;66989;50.426;15.352;2023-04-24T10:58:01;97190.88;;;14.60;75.45
77799;BME280;66989;50.426;15.352;2023-04-24T11:00:26;97191.38;;;14.72;74.60
77799;BME280;66989;50.426;15.352;2023-04-24T11:02:52;97188.03;;;14.78;73.74
77799;BME280;66989;50.426;15.352;2023-04-24T11:05:19;97192.50;;;14.86;73.38
77799;BME280;66989;50.426;15.352;2023-04-24T11:10:58;97197.16;;;14.84;69.15
77799;BME280;66989;50.426;15.352;2023-04-24T11:13:26;97192.16;;;14.89;69.51
77799;BME280;66989;50.426;15.352;2023-04-24T11:16:14;97197.13;;;14.92;69.74
77799;BME280;66989;50.426;15.352;2023-04-24T11:18:42;97197.63;;;14.95;70.27
77799;BME280;66989;50.426;15.352;2023-04-24T11:21:17;97203.44;;;14.99;69.12
77799;BME280;66989;50.426;15.352;2023-04-24T11:23:43;97204.75;;;14.95;68.74
77799;BME280;66989;50.426;15.352;2023-04-24T11:26:14;97202.09;;;14.95;69.62
77799;BME280;66989;50.426;15.352;2023-04-24T11:28:49;97199.44;;;14.95;70.20
77799;BME280;66989;50.426;15.352;2023-04-24T11:34:06;97201.22;;;15.11;67.82
77799;BME280;66989;50.426;15.352;2023-04-24T11:36:32;97201.72;;;15.14;67.30
77799;BME280;66989;50.426;15.352;2023-04-24T11:38:58;97206.34;;;15.20;66.81
77799;BME280;66989;50.426;15.352;2023-04-24T11:41:23;97196.91;;;15.26;66.91
77799;BME280;66989;50.426;15.352;2023-04-24T11:43:49;97209.03;;;15.28;67.01
77799;BME280;66989;50.426;15.352;2023-04-24T11:46:16;97200.31;;;15.43;66.94
77799;BME280;66989;50.426;15.352;2023-04-24T11:48:45;97194.47;;;15.55;67.54
77799;BME280;66989;50.426;15.352;2023-04-24T11:51:12;97198.03;;;15.71;68.19
77799;BME280;66989;50.426;15.352;2023-04-24T11:53:38;97200.25;;;15.90;68.28
77799;BME280;66989;50.426;15.352;2023-04-24T11:56:08;97194.06;;;15.98;68.60
77799;BME280;66989;50.426;15.352;2023-04-24T11:58:40;97186.56;;;16.01;67.97
77799;BME280;66989;50.426;15.352;2023-04-24T12:01:05;97187.69;;;16.07;67.77
77799;BME280;66989;50.426;15.352;2023-04-24T12:03:31;97187.31;;;16.10;67.31
77799;BME280;66989;50.426;15.352;2023-04-24T12:06:06;97196.00;;;16.04;66.88
77799;BME280;66989;50.426;15.352;2023-04-24T12:08:33;97182.72;;;16.04;65.50
77799;BME280;66989;50.426;15.352;2023-04-24T12:11:03;97177.69;;;16.09;66.14
77799;BME280;66989;50.426;15.352;2023-04-24T12:13:29;97177.66;;;16.17;65.77
77799;BME280;66989;50.426;15.352;2023-04-24T12:15:57;97174.28;;;16.23;65.54
77799;BME280;66989;50.426;15.352;2023-04-24T12:18:23;97172.19;;;16.33;65.84
77799;BME280;66989;50.426;15.352;2023-04-24T12:20:49;97171.47;;;16.40;64.94
77799;BME280;66989;50.426;15.352;2023-04-24T12:23:14;97176.06;;;16.46;65.04
77799;BME280;66989;50.426;15.352;2023-04-24T12:25:40;97170.34;;;16.34;64.96
77799;BME280;66989;50.426;15.352;2023-04-24T12:30:34;97162.47;;;16.41;63.97
77799;BME280;66989;50.426;15.352;2023-04-24T12:33:02;97160.28;;;16.44;62.87
77799;BME280;66989;50.426;15.352;2023-04-24T12:35:28;97157.41;;;16.54;63.00
77799;BME280;66989;50.426;15.352;2023-04-24T12:37:54;97150.81;;;16.65;63.43
77799;BME280;66989;50.426;15.352;2023-04-24T12:40:21;97153.41;;;16.88;63.25
77799;BME280;66989;50.426;15.352;2023-04-24T12:42:50;97149.19;;;17.08;61.63
77799;BME280;66989;50.426;15.352;2023-04-24T12:45:16;97149.16;;;17.37;61.47
77799;BME280;66989;50.426;15.352;2023-04-24T12:47:43;97149.31;;;17.66;60.37
77799;BME280;66989;50.426;15.352;2023-04-24T12:50:11;97143.66;;;17.90;59.41
77799;BME280;66989;50.426;15.352;2023-04-24T12:52:37;97141.38;;;18.08;59.16
77799;BME280;66989;50.426;15.352;2023-04-24T12:55:04;97145.63;;;18.24;58.29
77799;BME280;66989;50.426;15.352;2023-04-24T12:57:33;97145.09;;;18.35;57.70